Baie Verte, Canada
Current Conditions -  °F | °C
As of 9:00 PM on Saturday 22 Nov 2014 (Local Time) from CWDH Reporting Station
Scattered Clouds Scattered Clouds  
Wind Chill: 14°   Ceiling: Unl
Heat Index: 28°   Visibility: 9mi
Dew Point: 16°   Wind: 26mph
Humidity: 61%   Direction: 250°WSW
Pressure: 29.57"   Gusts: 36mph
Location:  49.92°N, 56.18°W
Report Text: CWDH 230000Z AUTO 25023G31KT 9SM SCT031 M02/M09 A2957 RMK SLP015 PK WND 27035/// T10201087 11016 21049 70002 WSI/SWOB
Loading
Personal Weather Stations






























Interactive Weather Map New forecast layout! Learn more

10-Day Weather Forecast

Advertisements
Track Severe Weather on mobile